Latest Weather Observations for Creal Reef

IDQ60801

Issued at 6:02 am EST Monday 23 January 2017 (issued every 30 minutes, with the page automatically refreshed every 10 minutes)

About weather observations | Map of weather stations | Latest weather observations for QLD | Other Formats
Station Details ID: 200736 Name: CREAL REEF Lat: -20.53 Lon: 150.38 Height: 1.7 m
Data from the previous 72 hours. | See also: Recent months for locations in Queensland
Date/Time
EST
Temp
°C
App
Temp
°C
Dew
Point
°C
Rel
Hum
%
Delta-T
°C
Wind Press
QNH
hPa
Press
MSL
hPa
Rain since
9am
mm
Dir  Spd
km/h
Gust
km/h
Spd
kts
Gust
kts
23/06:00am 26.7 - - - - ESE 13 17 7 9 1010.7 - -
23/05:30am 27.3 - - - - ESE 11 15 6 8 1010.2 - -
23/05:20am 27.2 - - - - ESE 9 - 5 - - 1010.0 -
23/05:00am 27.1 - - - - E 9 11 5 6 1009.7 - -
23/04:30am 26.8 - - - - ENE 15 24 8 13 1009.3 - -
23/04:20am 27.0 - - - - ENE 17 - 9 - - 1009.2 -
23/04:00am 27.1 - - - - E 13 15 7 8 1009.3 - -
23/03:30am 27.0 - - - - ESE 20 22 11 12 1009.3 - -
23/03:20am 27.2 - - - - ESE 22 - 12 - - 1009.3 -
23/03:00am 27.6 - - - - E 22 26 12 14 1009.5 - -
23/02:30am 28.5 - - - - E 20 24 11 13 1009.9 - -
23/02:20am 28.4 - - - - E 19 - 10 - - 1009.9 -
23/02:00am 28.3 - - - - E 20 22 11 12 1010.2 - -
23/01:30am 27.5 - - - - ENE 7 11 4 6 1010.3 - -
23/01:20am 27.4 - - - - NE 11 - 6 - - 1010.2 -
23/01:00am 27.3 - - - - ENE 17 24 9 13 1010.6 - -
23/12:30am 27.2 - - - - E 15 24 8 13 1011.2 - -
23/12:20am 27.5 - - - - E 26 - 14 - - 1011.2 -
23/12:00am 28.2 - - - - ESE 26 30 14 16 1011.4 - -
 
Date/Time
EST
Temp
°C
App
Temp
°C
Dew
Point
°C
Rel
Hum
%
Delta-T
°C
Wind Press
QNH
hPa
Press
MSL
hPa
Rain since
9am
mm
Dir  Spd
km/h
Gust
km/h
Spd
kts
Gust
kts
22/11:30pm 28.1 - - - - ESE 24 30 13 16 1011.5 - -
22/11:20pm 28.0 - - - - ESE 26 - 14 - - 1011.3 -
22/11:00pm 28.1 - - - - ESE 26 28 14 15 1011.6 - -
22/10:30pm 28.1 - - - - ESE 26 32 14 17 1011.9 - -
22/10:20pm 28.2 - - - - ESE 26 - 14 - - 1012.0 -
22/10:00pm 28.3 - - - - ESE 26 30 14 16 1012.0 - -
22/09:30pm 28.5 - - - - E 26 32 14 17 1011.8 - -
22/09:20pm 28.3 - - - - ESE 26 - 14 - - 1011.6 -
22/09:00pm 28.1 - - - - E 28 32 15 17 1011.4 - -
22/08:30pm 28.1 - - - - ESE 28 32 15 17 1011.1 - -
22/08:20pm 28.0 - - - - ESE 28 - 15 - - 1010.9 -
22/08:00pm 28.2 - - - - ESE 28 32 15 17 1010.9 - -
22/07:30pm 28.0 - - - - ESE 26 30 14 16 1010.7 - -
22/07:20pm 28.2 - - - - ESE 26 - 14 - - 1010.6 -
22/07:00pm 28.1 - - - - ESE 28 30 15 16 1010.6 - -
22/06:30pm 28.2 - - - - ESE 28 32 15 17 1010.1 - -
22/06:20pm 28.1 - - - - SE 28 - 15 - - 1009.9 -
22/06:00pm 28.1 - - - - SE 30 35 16 19 1009.8 - -
22/05:30pm 28.1 - - - - SE 28 33 15 18 1009.3 - -
22/05:20pm 28.2 - - - - ESE 28 - 15 - - 1009.3 -
22/05:00pm 28.2 - - - - SE 30 35 16 19 1009.3 - -
22/04:30pm 28.2 - - - - SE 28 32 15 17 1009.3 - -
22/04:20pm 28.2 - - - - ESE 28 - 15 - - 1009.1 -
22/04:00pm 28.1 - - - - ESE 30 32 16 17 1009.3 - -
22/03:30pm 28.2 - - - - SE 28 32 15 17 1009.3 - -
22/03:20pm 28.2 - - - - SE 28 - 15 - - 1009.5 -
22/03:00pm 28.2 - - - - ESE 28 32 15 17 1009.7 - -
22/02:30pm 28.4 - - - - SE 30 35 16 19 1009.9 - -
22/02:20pm 28.5 - - - - SE 30 - 16 - - 1009.9 -
22/02:00pm 28.1 - - - - ESE 32 35 17 19 1010.1 - -
22/01:30pm 28.2 - - - - ESE 28 33 15 18 1010.4 - -
22/01:20pm 28.1 - - - - ESE 28 - 15 - - 1010.3 -
22/01:00pm 28.2 - - - - ESE 30 33 16 18 1010.6 - -
22/12:30pm 28.1 - - - - ESE 28 32 15 17 1010.9 - -
22/12:20pm 28.1 - - - - ESE 28 - 15 - - 1010.8 -
22/12:00pm 28.1 - - - - SE 24 28 13 15 1011.0 - -
22/11:30am 28.2 - - - - ESE 20 22 11 12 1011.3 - -
22/11:20am 28.2 - - - - SE 20 - 11 - - 1011.3 -
22/11:00am 28.1 - - - - ESE 20 24 11 13 1011.4 - -
22/10:30am 28.3 - - - - ESE 17 20 9 11 1011.7 - -
22/10:20am 28.1 - - - - SE 17 - 9 - - 1011.6 -
22/10:00am 28.3 - - - - ESE 17 19 9 10 1011.6 - -
22/09:30am 28.3 - - - - ESE 15 17 8 9 1011.5 - -
22/09:20am 28.4 - - - - E 13 - 7 - - 1011.4 -
22/09:00am 28.4 - - - - ESE 11 15 6 8 1011.5 - -
22/08:30am 28.4 - - - - ENE 9 11 5 6 1011.4 - -
22/08:20am 28.5 - - - - ENE 9 - 5 - - 1011.2 -
22/08:00am 28.2 - - - - NE 9 11 5 6 1011.0 - -
22/07:30am 27.9 - - - - NE 11 13 6 7 1010.6 - -
22/07:20am 28.1 - - - - NNE 11 - 6 - - 1010.5 -
22/07:00am 28.0 - - - - NE 13 15 7 8 1010.5 - -
22/06:30am 27.8 - - - - NNE 13 17 7 9 1010.0 - -
22/06:20am 27.7 - - - - NNE 13 - 7 - - 1009.6 -
22/06:00am 27.8 - - - - NNE 13 15 7 8 1009.0 - -
22/05:30am 27.6 - - - - NNE 11 15 6 8 1008.4 - -
22/05:20am 27.7 - - - - NNE 11 - 6 - - 1008.4 -
22/05:00am 27.7 - - - - NNE 15 17 8 9 1008.1 - -
22/04:30am 27.6 - - - - NNE 13 15 7 8 1007.7 - -
22/04:20am 27.6 - - - - NE 13 - 7 - - 1007.7 -
22/04:00am 27.7 - - - - NNE 15 17 8 9 1007.6 - -
22/03:30am 27.7 - - - - NNE 15 17 8 9 1007.7 - -
22/03:20am 27.8 - - - - NNE 15 - 8 - - 1007.9 -
22/03:00am 27.8 - - - - NNE 17 20 9 11 1007.9 - -
22/02:30am 27.7 - - - - NNE 19 20 10 11 1008.1 - -
22/02:20am 27.9 - - - - NNE 17 - 9 - - 1008.2 -
22/02:00am 27.9 - - - - NNE 19 22 10 12 1008.3 - -
22/01:30am 28.0 - - - - NNE 19 20 10 11 1008.4 - -
22/01:20am 27.9 - - - - NNE 19 - 10 - - 1008.5 -
22/01:00am 28.0 - - - - NNE 17 20 9 11 1008.8 - -
22/12:30am 28.1 - - - - NNE 13 15 7 8 1009.3 - -
22/12:20am 28.0 - - - - NE 13 - 7 - - 1009.3 -
22/12:00am 28.1 - - - - NE 15 17 8 9 1009.6 - -
 
Date/Time
EST
Temp
°C
App
Temp
°C
Dew
Point
°C
Rel
Hum
%
Delta-T
°C
Wind Press
QNH
hPa
Press
MSL
hPa
Rain since
9am
mm
Dir  Spd
km/h
Gust
km/h
Spd
kts
Gust
kts
21/11:30pm 28.1 - - - - NE 13 17 7 9 1009.9 - -
21/11:20pm 28.1 - - - - NE 11 - 6 - - 1009.9 -
21/11:00pm 28.1 - - - - NE 13 17 7 9 1010.0 - -
21/10:30pm 28.2 - - - - NE 15 19 8 10 1010.0 - -
21/10:20pm 28.1 - - - - NE 15 - 8 - - 1009.9 -
21/10:00pm 28.1 - - - - NE 15 19 8 10 1009.8 - -
21/09:30pm 28.2 - - - - NE 15 19 8 10 1009.3 - -
21/09:20pm 28.1 - - - - NE 15 - 8 - - 1009.1 -
21/09:00pm 28.1 - - - - NE 17 20 9 11 1008.7 - -
21/08:30pm 28.2 - - - - NE 17 19 9 10 1008.4 - -
21/08:20pm 28.1 - - - - NE 17 - 9 - - 1008.2 -
21/08:00pm 28.1 - - - - NNE 17 22 9 12 1007.9 - -
21/07:30pm 28.1 - - - - NNE 17 20 9 11 1007.6 - -
21/07:20pm 28.1 - - - - NNE 17 - 9 - - 1007.5 -
21/07:00pm 28.3 - - - - NNE 19 20 10 11 1007.3 - -
21/06:30pm 28.2 - - - - NE 17 20 9 11 1007.1 - -
21/06:20pm 28.2 - - - - NE 17 - 9 - - 1007.1 -
21/06:00pm 28.3 - - - - NNE 20 24 11 13 1006.7 - -
21/05:30pm 28.2 - - - - NNE 15 19 8 10 1006.7 - -
21/05:20pm 28.2 - - - - NNE 15 - 8 - - 1006.6 -
21/05:00pm 28.2 - - - - NNE 15 19 8 10 1006.5 - -
21/04:30pm 28.3 - - - - NNE 13 19 7 10 1006.5 - -
21/04:20pm 28.4 - - - - NNE 15 - 8 - - 1006.4 -
21/04:00pm 28.3 - - - - NNE 13 15 7 8 1006.7 - -
21/03:30pm 28.3 - - - - NNE 11 15 6 8 1006.9 - -
21/03:20pm 28.3 - - - - NNE 9 - 5 - - 1007.0 -
21/03:00pm 28.4 - - - - NNE 9 11 5 6 1007.2 - -
21/02:30pm 28.3 - - - - N 11 15 6 8 1007.4 - -
21/02:20pm 28.3 - - - - N 11 - 6 - - 1007.4 -
21/02:00pm 28.3 - - - - N 15 17 8 9 1007.6 - -
21/01:30pm 28.2 - - - - NNE 17 20 9 11 1007.8 - -
21/01:20pm 28.2 - - - - NNE 19 - 10 - - 1007.8 -
21/01:00pm 28.2 - - - - NNE 19 20 10 11 1007.9 - -
21/12:30pm 28.1 - - - - N 17 20 9 11 1008.2 - -
21/12:20pm 28.1 - - - - NNE 17 - 9 - - 1008.3 -
21/12:00pm 28.1 - - - - NNE 15 17 8 9 1008.4 - -
21/11:30am 28.1 - - - - N 11 13 6 7 1008.7 - -
21/11:20am 28.2 - - - - N 13 - 7 - - 1008.8 -
21/11:00am 28.1 - - - - N 13 15 7 8 1009.1 - -
21/10:30am 28.1 - - - - NNE 15 19 8 10 1009.3 - -
21/10:20am 28.0 - - - - NNE 15 - 8 - - 1009.3 -
21/10:00am 28.1 - - - - NNE 13 17 7 9 1009.6 - -
21/09:30am 28.1 - - - - NNE 13 15 7 8 1009.7 - -
21/09:20am 28.0 - - - - NNE 13 - 7 - - 1009.5 -
21/09:00am 28.1 - - - - NNE 13 17 7 9 1009.3 - -
21/08:30am 27.9 - - - - NNE 13 17 7 9 1009.1 - -
21/08:20am 28.0 - - - - NNE 15 - 8 - - 1009.1 -
21/08:00am 27.9 - - - - NNE 15 17 8 9 1008.9 - -
21/07:30am 27.9 - - - - NNE 11 13 6 7 1009.1 - -
21/07:20am 27.9 - - - - N 11 - 6 - - 1009.1 -
21/07:00am 27.9 - - - - NNE 13 17 7 9 1008.9 - -
21/06:30am 27.8 - - - - NNE 15 17 8 9 1008.8 - -
21/06:20am 27.8 - - - - NE 15 - 8 - - 1008.7 -
21/06:00am 27.8 - - - - NE 19 22 10 12 1008.3 - -
21/05:30am 27.7 - - - - NE 17 19 9 10 1008.1 - -
21/05:20am 27.6 - - - - NE 19 - 10 - - 1008.0 -
21/05:00am 27.8 - - - - NE 15 19 8 10 1007.7 - -
21/04:30am 27.7 - - - - NNE 17 19 9 10 1007.0 - -
21/04:20am 27.8 - - - - NE 19 - 10 - - 1007.0 -
21/04:00am 27.8 - - - - NE 17 20 9 11 1006.7 - -
21/03:30am 27.8 - - - - ENE 20 24 11 13 1006.7 - -
21/03:20am 27.8 - - - - NE 20 - 11 - - 1006.7 -
21/03:00am 27.9 - - - - NE 20 24 11 13 1006.6 - -
21/02:30am 27.8 - - - - NE 19 20 10 11 1006.9 - -
21/02:20am 27.9 - - - - ENE 20 - 11 - - 1006.9 -
21/02:00am 28.0 - - - - ENE 17 20 9 11 1007.2 - -
21/01:30am 28.1 - - - - ENE 17 20 9 11 1007.4 - -
21/01:20am 28.0 - - - - ENE 19 - 10 - - 1007.6 -
21/01:00am 28.2 - - - - ENE 19 20 10 11 1007.7 - -
21/12:30am 28.1 - - - - ENE 20 24 11 13 1007.9 - -
21/12:20am 28.0 - - - - ENE 20 - 11 - - 1007.9 -
21/12:00am 28.1 - - - - ENE 20 24 11 13 1008.0 - -
 
Date/Time
EST
Temp
°C
App
Temp
°C
Dew
Point
°C
Rel
Hum
%
Delta-T
°C
Wind Press
QNH
hPa
Press
MSL
hPa
Rain since
9am
mm
Dir  Spd
km/h
Gust
km/h
Spd
kts
Gust
kts
20/11:30pm 28.1 - - - - ENE 19 22 10 12 1008.2 - -
20/11:20pm 28.2 - - - - ENE 20 - 11 - - 1008.4 -
20/11:00pm 28.0 - - - - E 15 19 8 10 1008.4 - -
20/10:30pm 27.9 - - - - E 17 20 9 11 1008.7 - -
20/10:20pm 27.9 - - - - E 15 - 8 - - 1008.8 -
20/10:00pm 27.9 - - - - E 15 17 8 9 1008.8 - -
20/09:30pm 27.8 - - - - E 15 19 8 10 1008.7 - -
20/09:20pm 27.8 - - - - E 13 - 7 - - 1008.5 -
20/09:00pm 27.8 - - - - E 13 17 7 9 1008.4 - -
20/08:30pm 27.8 - - - - E 13 15 7 8 1008.1 - -
20/08:20pm 27.8 - - - - E 13 - 7 - - 1007.9 -
20/08:00pm 27.8 - - - - E 13 15 7 8 1007.8 - -
20/07:30pm 27.8 - - - - ENE 11 15 6 8 1007.6 - -
20/07:20pm 27.8 - - - - ENE 11 - 6 - - 1007.5 -
20/07:00pm 27.9 - - - - E 9 13 5 7 1007.4 - -
20/06:30pm 27.9 - - - - ENE 13 15 7 8 1007.1 - -
20/06:20pm 27.9 - - - - E 11 - 6 - - 1007.1 -
20/06:00pm 27.9 - - - - ENE 11 15 6 8 1006.9 - -
20/05:30pm 28.2 - - - - ENE 11 13 6 7 1006.7 - -
20/05:20pm 28.1 - - - - ENE 11 - 6 - - 1006.5 -
20/05:00pm 28.1 - - - - E 13 17 7 9 1006.5 - -
20/04:30pm 28.2 - - - - ESE 11 15 6 8 1006.5 - -
20/04:20pm 28.4 - - - - E 9 - 5 - - 1006.4 -
20/04:00pm 28.1 - - - - ESE 9 11 5 6 1006.5 - -
20/03:30pm 28.1 - - - - ESE 11 13 6 7 1006.6 - -
20/03:20pm 28.3 - - - - SSE 9 - 5 - - 1006.8 -
20/03:00pm 28.3 - - - - ESE 9 13 5 7 1007.0 - -
20/02:30pm 28.4 - - - - CALM 0 7 0 4 1007.4 - -
20/02:20pm 28.4 - - - - ESE 2 - 1 - - 1007.5 -
20/02:00pm 28.3 - - - - ESE 6 7 3 4 1007.9 - -
20/01:30pm 28.4 - - - - E 6 11 3 6 1008.2 - -
20/01:20pm 28.3 - - - - E 6 - 3 - - 1008.4 -
20/01:00pm 28.3 - - - - E 6 9 3 5 1008.7 - -
20/12:30pm 28.4 - - - - ESE 2 9 1 5 1008.9 - -
20/12:20pm 28.4 - - - - ESE 6 - 3 - - 1009.0 -
20/12:00pm 28.4 - - - - SE 6 9 3 5 1008.9 - -
20/11:30am 28.6 - - - - SE 4 7 2 4 1009.1 - -
20/11:20am 28.8 - - - - E 4 - 2 - - 1009.2 -
20/11:00am 28.8 - - - - E 2 7 1 4 1009.5 - -
20/10:30am 28.8 - - - - CALM 0 9 0 5 1009.8 - -
20/10:20am 28.7 - - - - ENE 2 - 1 - - 1009.7 -
20/10:00am 28.2 - - - - ESE 7 11 4 6 1009.7 - -
20/09:30am 28.1 - - - - ENE 7 11 4 6 1009.7 - -
20/09:20am 28.1 - - - - E 9 - 5 - - 1009.6 -
20/09:00am 28.3 - - - - E 11 13 6 7 1009.5 - -
20/08:30am 28.0 - - - - E 13 15 7 8 1009.3 - -
20/08:20am 28.3 - - - - ENE 9 - 5 - - 1009.1 -
20/08:00am 28.1 - - - - E 11 17 6 9 1009.1 - -
20/07:30am 28.2 - - - - E 11 15 6 8 1009.1 - -
20/07:20am 28.1 - - - - ENE 13 - 7 - - 1009.0 -
20/07:00am 28.1 - - - - ENE 11 15 6 8 1009.0 - -
20/06:30am 28.1 - - - - ENE 13 17 7 9 1008.7 - -
20/06:20am 27.8 - - - - ENE 13 - 7 - - 1008.6 -

Other Formats:

Comma delimited format used in spreadsheet applications
http://www.bom.gov.au/fwo/IDQ60801/IDQ60801.94371.axf

JavaScript Object Notation format (JSON) in row-major order
http://www.bom.gov.au/fwo/IDQ60801/IDQ60801.94371.json